createdAt,value
2019-06-01T00:00:08.171Z,15.70
2019-06-01T00:00:55.602Z,15.68
2019-06-01T00:01:54.608Z,15.65
2019-06-01T00:02:56.963Z,15.64
2019-06-01T00:03:54.601Z,15.59
2019-06-01T00:04:54.611Z,15.58
2019-06-01T00:05:54.575Z,15.57
2019-06-01T00:06:54.561Z,15.55
2019-06-01T00:07:54.545Z,15.51
2019-06-01T00:08:54.523Z,15.49
2019-06-01T00:09:54.570Z,15.47
2019-06-01T00:10:54.523Z,15.46
2019-06-01T00:11:54.524Z,15.46
2019-06-01T00:12:54.497Z,15.49
2019-06-01T00:13:54.487Z,15.49
2019-06-01T00:14:54.469Z,15.52
2019-06-01T00:15:54.495Z,15.52
2019-06-01T00:16:54.462Z,15.49
2019-06-01T00:17:54.431Z,15.49
2019-06-01T00:18:54.435Z,15.47
2019-06-01T00:19:54.497Z,15.47
2019-06-01T00:20:54.924Z,15.47
2019-06-01T00:21:54.397Z,15.46
2019-06-01T00:22:54.375Z,15.47
2019-06-01T00:23:54.365Z,15.52
2019-06-01T00:24:54.358Z,15.52
2019-06-01T00:25:54.363Z,15.49
2019-06-01T00:26:54.348Z,15.47
2019-06-01T00:27:54.364Z,15.46
2019-06-01T00:28:54.319Z,15.47
2019-06-01T00:29:54.306Z,15.44
2019-06-01T00:30:54.317Z,15.43
2019-06-01T00:31:54.283Z,15.39
2019-06-01T00:32:54.270Z,15.35
2019-06-01T00:33:54.275Z,15.29
2019-06-01T00:34:54.266Z,15.25
2019-06-01T00:35:54.263Z,15.24
2019-06-01T00:36:54.229Z,15.19
2019-06-01T00:37:54.228Z,15.14
2019-06-01T00:38:54.213Z,15.07
2019-06-01T00:39:54.205Z,15.03
2019-06-01T00:40:54.239Z,15.03
2019-06-01T00:41:54.194Z,15.00
2019-06-01T00:42:54.163Z,15.00
2019-06-01T00:43:54.157Z,14.97
2019-06-01T00:44:54.144Z,14.97
2019-06-01T00:45:54.142Z,14.96
2019-06-01T00:46:54.149Z,14.89
2019-06-01T00:47:54.112Z,14.88
2019-06-01T00:48:54.258Z,14.84
2019-06-01T00:49:54.095Z,14.79
2019-06-01T00:50:54.089Z,14.77
2019-06-01T00:51:54.098Z,14.70
2019-06-01T00:52:54.048Z,14.65
2019-06-01T00:53:54.038Z,14.60
2019-06-01T00:54:54.033Z,14.58
2019-06-01T00:55:54.168Z,14.54
2019-06-01T00:56:54.095Z,14.53
2019-06-01T00:57:54.060Z,14.51
2019-06-01T00:58:54.032Z,14.47
2019-06-01T00:59:55.067Z,14.45
2019-06-01T01:00:55.221Z,14.43
2019-06-01T01:01:54.316Z,14.44
2019-06-01T01:02:54.387Z,14.43
2019-06-01T01:03:54.412Z,14.41
2019-06-01T01:04:54.385Z,14.35
2019-06-01T01:05:54.834Z,14.35
2019-06-01T01:06:54.775Z,14.32
2019-06-01T01:07:55.025Z,14.32
2019-06-01T01:08:55.197Z,14.36
2019-06-01T01:09:54.950Z,14.35
2019-06-01T01:10:55.022Z,14.36
2019-06-01T01:11:55.250Z,14.36
2019-06-01T01:12:53.847Z,14.37
2019-06-01T01:13:53.824Z,14.36
2019-06-01T01:14:53.825Z,14.36
2019-06-01T01:15:53.818Z,14.36
2019-06-01T01:16:54.208Z,14.40
2019-06-01T01:17:53.976Z,14.41
2019-06-01T01:18:53.908Z,14.41
2019-06-01T01:19:54.025Z,14.40
2019-06-01T01:20:54.176Z,14.36
2019-06-01T01:21:54.133Z,14.35
2019-06-01T01:22:54.369Z,14.33
2019-06-01T01:23:54.735Z,14.29
2019-06-01T01:24:54.582Z,14.26
2019-06-01T01:25:54.578Z,14.25
2019-06-01T01:26:54.697Z,14.20
2019-06-01T01:27:54.807Z,14.15
2019-06-01T01:28:54.864Z,14.12
2019-06-01T01:29:53.661Z,14.10
2019-06-01T01:31:08.372Z,14.07
2019-06-01T01:31:55.337Z,14.05
2019-06-01T01:32:53.677Z,14.00
2019-06-01T01:33:53.638Z,14.00
2019-06-01T01:34:53.783Z,13.97
2019-06-01T01:35:54.210Z,13.95
2019-06-01T01:36:54.341Z,13.92
2019-06-01T01:37:53.899Z,13.89
2019-06-01T01:38:54.367Z,13.87
2019-06-01T01:39:54.229Z,13.86
2019-06-01T01:40:54.184Z,13.86
2019-06-01T01:41:54.241Z,13.86
2019-06-01T01:42:54.411Z,13.87
2019-06-01T01:43:54.596Z,13.87
2019-06-01T01:44:54.577Z,13.89
2019-06-01T01:45:54.728Z,13.90
2019-06-01T01:46:54.770Z,13.89
2019-06-01T01:47:53.486Z,13.90
2019-06-01T01:48:54.198Z,13.90
2019-06-01T01:49:54.080Z,13.89
2019-06-01T01:50:54.273Z,13.89
2019-06-01T01:51:53.442Z,13.89
2019-06-01T01:52:54.701Z,13.86
2019-06-01T01:53:54.609Z,13.85
2019-06-01T01:54:54.529Z,13.85
2019-06-01T01:55:53.375Z,13.83
2019-06-01T01:56:54.133Z,13.79
2019-06-01T01:57:53.392Z,13.79
2019-06-01T01:58:54.311Z,13.78
2019-06-01T01:59:53.396Z,13.79
2019-06-01T02:00:54.616Z,13.78
2019-06-01T02:01:54.529Z,13.75
2019-06-01T02:02:54.025Z,13.74
2019-06-01T02:03:54.030Z,13.74
2019-06-01T02:04:53.699Z,13.74
2019-06-01T02:05:53.301Z,13.74
2019-06-01T02:06:53.904Z,13.72
2019-06-01T02:07:53.242Z,13.70
2019-06-01T02:08:53.573Z,13.71
2019-06-01T02:09:53.310Z,13.68
2019-06-01T02:10:53.365Z,13.68
2019-06-01T02:11:53.497Z,13.65
2019-06-01T02:12:53.424Z,13.62
2019-06-01T02:13:53.606Z,13.60
2019-06-01T02:14:53.713Z,13.60
2019-06-01T02:15:54.121Z,13.62
2019-06-01T02:16:53.971Z,13.60
2019-06-01T02:17:53.947Z,13.60
2019-06-01T02:18:54.363Z,13.60
2019-06-01T02:19:54.098Z,13.57
2019-06-01T02:20:54.267Z,13.57
2019-06-01T02:21:54.374Z,13.54
2019-06-01T02:22:53.112Z,13.52
2019-06-01T02:23:53.090Z,13.49
2019-06-01T02:24:53.758Z,13.47
2019-06-01T02:25:53.047Z,13.44
2019-06-01T02:26:53.168Z,13.42
2019-06-01T02:27:53.179Z,13.41
2019-06-01T02:28:53.223Z,13.41
2019-06-01T02:29:53.148Z,13.39
2019-06-01T02:30:53.977Z,13.42
2019-06-01T02:31:54.621Z,13.44
2019-06-01T02:32:53.765Z,13.44
2019-06-01T02:33:53.757Z,13.44
2019-06-01T02:34:54.323Z,13.46
2019-06-01T02:35:54.395Z,13.44
2019-06-01T02:36:54.340Z,13.44
2019-06-01T02:37:54.521Z,13.44
2019-06-01T02:38:54.513Z,13.44
2019-06-01T02:39:54.242Z,13.44
2019-06-01T02:40:54.744Z,13.44
2019-06-01T02:41:54.778Z,13.47
2019-06-01T02:42:52.869Z,13.50
2019-06-01T02:43:52.872Z,13.53
2019-06-01T02:44:52.850Z,13.53
2019-06-01T02:45:52.861Z,13.54
2019-06-01T02:46:52.823Z,13.59
2019-06-01T02:47:52.811Z,13.60
2019-06-01T02:48:52.834Z,13.60
2019-06-01T02:49:52.792Z,13.63
2019-06-01T02:50:52.786Z,13.68
2019-06-01T02:51:52.791Z,13.70
2019-06-01T02:52:52.761Z,13.78
2019-06-01T02:53:52.754Z,13.83
2019-06-01T02:54:52.776Z,13.89
2019-06-01T02:55:52.739Z,13.95
2019-06-01T02:56:52.711Z,13.97
2019-06-01T02:57:52.713Z,13.99
2019-06-01T02:58:52.691Z,13.99
2019-06-01T02:59:52.735Z,13.99
2019-06-01T03:00:52.672Z,13.96
2019-06-01T03:01:57.288Z,13.97
2019-06-01T03:02:53.659Z,13.97
2019-06-01T03:03:52.674Z,14.00
2019-06-01T03:04:52.639Z,14.03
2019-06-01T03:05:52.645Z,14.04
2019-06-01T03:06:52.616Z,14.03
2019-06-01T03:07:52.597Z,14.00
2019-06-01T03:08:52.599Z,13.96
2019-06-01T03:09:52.587Z,13.95
2019-06-01T03:10:52.595Z,13.92
2019-06-01T03:11:52.549Z,13.92
2019-06-01T03:12:52.553Z,13.89
2019-06-01T03:13:52.549Z,13.87
2019-06-01T03:14:52.534Z,13.89
2019-06-01T03:15:52.559Z,13.86
2019-06-01T03:16:52.507Z,13.87
2019-06-01T03:17:52.506Z,13.87
2019-06-01T03:18:52.479Z,13.90
2019-06-01T03:19:52.475Z,13.92
2019-06-01T03:20:52.445Z,13.93
2019-06-01T03:21:52.484Z,13.95
2019-06-01T03:22:52.438Z,13.97
2019-06-01T03:23:52.434Z,13.99
2019-06-01T03:24:52.422Z,14.04
2019-06-01T03:25:52.411Z,14.04
2019-06-01T03:26:52.407Z,14.07
2019-06-01T03:27:52.395Z,14.08
2019-06-01T03:28:52.383Z,14.08
2019-06-01T03:29:52.374Z,14.11
2019-06-01T03:30:52.363Z,14.12
2019-06-01T03:31:52.347Z,14.15
2019-06-01T03:32:52.380Z,14.15
2019-06-01T03:33:52.322Z,14.15
2019-06-01T03:34:52.326Z,14.14
2019-06-01T03:35:52.310Z,14.18
2019-06-01T03:36:52.284Z,14.18
2019-06-01T03:37:52.273Z,14.22
2019-06-01T03:38:52.295Z,14.26
2019-06-01T03:39:52.278Z,14.28
2019-06-01T03:40:52.252Z,14.29
2019-06-01T03:41:52.244Z,14.33
2019-06-01T03:42:52.232Z,14.33
2019-06-01T03:43:52.265Z,14.32
2019-06-01T03:44:52.210Z,14.33
2019-06-01T03:45:52.208Z,14.33
2019-06-01T03:46:52.197Z,14.36
2019-06-01T03:47:52.177Z,14.36
2019-06-01T03:48:52.166Z,14.41
2019-06-01T03:49:52.172Z,14.41
2019-06-01T03:50:52.138Z,14.43
2019-06-01T03:51:52.130Z,14.47
2019-06-01T03:52:52.128Z,14.51
2019-06-01T03:53:52.108Z,14.54
2019-06-01T03:54:52.137Z,14.59
2019-06-01T03:55:52.089Z,14.60
2019-06-01T03:56:52.080Z,14.62
2019-06-01T03:57:52.065Z,14.66
2019-06-01T03:58:52.056Z,14.69
2019-06-01T03:59:52.046Z,14.70
2019-06-01T04:00:52.068Z,14.73
2019-06-01T04:01:52.030Z,14.79
2019-06-01T04:02:52.006Z,14.79
2019-06-01T04:03:51.995Z,14.81
2019-06-01T04:04:51.995Z,14.85
2019-06-01T04:05:52.005Z,14.89
2019-06-01T04:06:51.987Z,14.88
2019-06-01T04:07:51.964Z,14.89
2019-06-01T04:08:51.972Z,14.89
2019-06-01T04:09:51.934Z,14.88
2019-06-01T04:10:51.986Z,14.92
2019-06-01T04:11:51.938Z,14.99
2019-06-01T04:12:51.903Z,15.02
2019-06-01T04:13:51.902Z,15.09
2019-06-01T04:14:51.866Z,15.11
2019-06-01T04:15:51.870Z,15.14
2019-06-01T04:16:51.867Z,15.14
2019-06-01T04:17:51.870Z,15.14
2019-06-01T04:18:51.857Z,15.18
2019-06-01T04:19:51.832Z,15.19
2019-06-01T04:20:51.837Z,15.19
2019-06-01T04:21:51.840Z,15.21
2019-06-01T04:22:51.789Z,15.21
2019-06-01T04:23:51.800Z,15.27
2019-06-01T04:24:51.776Z,15.29
2019-06-01T04:25:51.786Z,15.31
2019-06-01T04:26:51.748Z,15.35
2019-06-01T04:27:51.759Z,15.36
2019-06-01T04:28:51.730Z,15.40
2019-06-01T04:29:51.714Z,15.46
2019-06-01T04:30:51.725Z,15.49
2019-06-01T04:31:51.691Z,15.52
2019-06-01T04:32:51.723Z,15.57
2019-06-01T04:33:52.677Z,15.61
2019-06-01T04:34:51.673Z,15.65
2019-06-01T04:35:51.664Z,15.67
2019-06-01T04:36:51.638Z,15.72
2019-06-01T04:37:51.697Z,15.75
2019-06-01T04:38:51.616Z,15.77
2019-06-01T04:39:51.618Z,15.86
2019-06-01T04:40:51.612Z,15.90
2019-06-01T04:41:51.606Z,15.91
2019-06-01T04:42:51.599Z,15.91
2019-06-01T04:43:51.578Z,15.90
2019-06-01T04:44:51.547Z,15.91
2019-06-01T04:45:51.541Z,15.92
2019-06-01T04:46:51.539Z,15.92
2019-06-01T04:47:51.567Z,15.97
2019-06-01T04:48:51.515Z,15.97
2019-06-01T04:49:51.527Z,15.98
2019-06-01T04:50:51.509Z,16.01
2019-06-01T04:51:51.521Z,16.04
2019-06-01T04:52:51.527Z,16.08
2019-06-01T04:53:51.496Z,16.12
2019-06-01T04:54:51.447Z,16.20
2019-06-01T04:55:51.447Z,16.33
2019-06-01T04:56:51.433Z,16.49
2019-06-01T04:57:51.413Z,16.64
2019-06-01T04:58:51.415Z,16.83
2019-06-01T04:59:51.411Z,16.99
2019-06-01T05:00:51.375Z,17.11
2019-06-01T05:01:51.382Z,17.31
2019-06-01T05:03:04.439Z,17.56
2019-06-01T05:03:52.385Z,17.76
2019-06-01T05:04:51.349Z,17.92
2019-06-01T05:05:51.321Z,17.95
2019-06-01T05:06:51.333Z,18.04
2019-06-01T05:07:51.348Z,18.01
2019-06-01T05:08:51.384Z,18.04
2019-06-01T05:09:51.297Z,18.19
2019-06-01T05:10:51.285Z,18.22
2019-06-01T05:11:51.272Z,18.15
2019-06-01T05:12:51.266Z,18.33
2019-06-01T05:13:51.229Z,18.41
2019-06-01T05:14:51.251Z,18.37
2019-06-01T05:15:51.234Z,18.49
2019-06-01T05:16:51.232Z,18.73
2019-06-01T05:17:51.207Z,18.74
2019-06-01T05:18:51.178Z,18.77
2019-06-01T05:19:51.238Z,18.96
2019-06-01T05:20:51.168Z,19.11
2019-06-01T05:21:51.147Z,19.11
2019-06-01T05:22:51.145Z,19.08
2019-06-01T05:23:51.135Z,19.29
2019-06-01T05:24:51.133Z,19.34
2019-06-01T05:25:53.267Z,19.41
2019-06-01T05:26:51.183Z,19.47
2019-06-01T05:27:51.139Z,19.55
2019-06-01T05:28:51.069Z,19.55
2019-06-01T05:29:51.061Z,19.62
2019-06-01T05:30:51.085Z,19.62
2019-06-01T05:31:51.052Z,19.81
2019-06-01T05:32:51.047Z,19.99
2019-06-01T05:33:51.027Z,20.13
2019-06-01T05:34:51.025Z,20.09
2019-06-01T05:35:51.005Z,20.11
2019-06-01T05:36:51.043Z,20.03
2019-06-01T05:37:50.988Z,19.99
2019-06-01T05:38:50.975Z,20.06
2019-06-01T05:39:50.969Z,20.13
2019-06-01T05:40:50.955Z,20.31
2019-06-01T05:41:50.967Z,20.47
2019-06-01T05:42:50.975Z,20.56
2019-06-01T05:43:50.995Z,20.34
2019-06-01T05:44:50.943Z,20.56
2019-06-01T05:45:50.907Z,20.67
2019-06-01T05:46:50.884Z,20.69
2019-06-01T05:47:50.893Z,20.69
2019-06-01T05:48:50.869Z,20.72
2019-06-01T05:49:50.877Z,20.93
2019-06-01T05:50:50.851Z,20.96
2019-06-01T05:51:50.837Z,20.87
2019-06-01T05:52:50.856Z,20.93
2019-06-01T05:53:50.812Z,20.97
2019-06-01T05:54:50.902Z,21.03
2019-06-01T05:55:50.787Z,20.99
2019-06-01T05:56:50.784Z,20.81
2019-06-01T05:57:50.781Z,20.95
2019-06-01T05:58:50.774Z,21.15
2019-06-01T05:59:50.749Z,21.33
2019-06-01T06:00:50.773Z,21.66
2019-06-01T06:01:50.722Z,22.20
2019-06-01T06:02:50.724Z,22.43
2019-06-01T06:03:50.738Z,22.76
2019-06-01T06:04:50.692Z,22.60
2019-06-01T06:05:50.692Z,22.57
2019-06-01T06:06:50.678Z,22.91
2019-06-01T06:07:50.657Z,22.93
2019-06-01T06:08:50.661Z,23.10
2019-06-01T06:09:50.656Z,23.18
2019-06-01T06:10:50.628Z,23.43
2019-06-01T06:11:53.819Z,23.32
2019-06-01T06:12:50.604Z,23.40
2019-06-01T06:13:50.601Z,23.69
2019-06-01T06:14:50.590Z,23.84
2019-06-01T06:15:50.590Z,23.96
2019-06-01T06:16:50.560Z,24.38
2019-06-01T06:17:50.560Z,24.36
2019-06-01T06:18:50.558Z,24.57
2019-06-01T06:19:50.562Z,24.91
2019-06-01T06:20:50.515Z,24.63
2019-06-01T06:21:50.520Z,24.43
2019-06-01T06:22:50.493Z,24.54
2019-06-01T06:23:50.486Z,24.77
2019-06-01T06:24:50.510Z,25.31
2019-06-01T06:25:50.458Z,25.33
2019-06-01T06:26:50.467Z,25.51
2019-06-01T06:27:50.474Z,25.40
2019-06-01T06:28:50.444Z,25.36
2019-06-01T06:29:50.433Z,25.40
2019-06-01T06:30:50.430Z,25.50
2019-06-01T06:31:50.411Z,25.31
2019-06-01T06:32:50.376Z,25.43
2019-06-01T06:33:56.410Z,25.66
2019-06-01T06:34:51.374Z,25.70
2019-06-01T06:35:50.369Z,26.06
2019-06-01T06:36:50.350Z,25.98
2019-06-01T06:37:50.341Z,25.91
2019-06-01T06:38:50.318Z,25.38
2019-06-01T06:39:50.406Z,25.72
2019-06-01T06:40:50.330Z,25.65
2019-06-01T06:41:50.304Z,25.54
2019-06-01T06:42:50.305Z,25.85
2019-06-01T06:43:50.314Z,25.95
2019-06-01T06:44:50.250Z,25.65
2019-06-01T06:45:50.253Z,25.55
2019-06-01T06:46:50.273Z,25.66
2019-06-01T06:47:50.236Z,25.47
2019-06-01T06:48:50.220Z,25.44
2019-06-01T06:49:50.220Z,25.69
2019-06-01T06:50:50.199Z,25.85
2019-06-01T06:51:50.238Z,26.18
2019-06-01T06:52:50.168Z,26.00
2019-06-01T06:53:50.177Z,26.09
2019-06-01T06:54:50.172Z,26.13
2019-06-01T06:55:50.147Z,26.07
2019-06-01T06:56:50.128Z,26.19
2019-06-01T06:57:50.143Z,26.52
2019-06-01T06:58:50.123Z,26.73
2019-06-01T06:59:50.108Z,26.70
2019-06-01T07:00:50.103Z,26.40
2019-06-01T07:01:50.088Z,26.40
2019-06-01T07:02:50.104Z,26.37
2019-06-01T07:03:50.075Z,26.51
2019-06-01T07:04:50.062Z,26.36
2019-06-01T07:05:50.028Z,26.28
2019-06-01T07:06:50.059Z,26.44
2019-06-01T07:07:50.043Z,26.47
2019-06-01T07:08:50.008Z,26.66
2019-06-01T07:09:50.000Z,26.80
2019-06-01T07:10:49.992Z,26.89
2019-06-01T07:11:50.002Z,27.05
2019-06-01T07:12:49.976Z,27.10
2019-06-01T07:13:49.977Z,27.18
2019-06-01T07:14:49.958Z,27.51
2019-06-01T07:15:49.937Z,27.77
2019-06-01T07:16:49.951Z,27.96
2019-06-01T07:17:49.941Z,27.96
2019-06-01T07:18:49.899Z,28.32
2019-06-01T07:19:49.951Z,27.83
2019-06-01T07:20:49.880Z,27.78
2019-06-01T07:21:49.876Z,27.52
2019-06-01T07:22:49.883Z,27.42
2019-06-01T07:23:49.910Z,27.00
2019-06-01T07:24:49.848Z,26.92
2019-06-01T07:25:49.837Z,27.17
2019-06-01T07:26:49.833Z,27.42
2019-06-01T07:27:49.807Z,27.74
2019-06-01T07:28:49.810Z,27.70
2019-06-01T07:29:49.823Z,27.55
2019-06-01T07:30:50.834Z,27.73
2019-06-01T07:31:49.757Z,27.89
2019-06-01T07:32:49.754Z,28.14
2019-06-01T07:33:49.754Z,27.98
2019-06-01T07:34:49.719Z,27.90
2019-06-01T07:35:49.758Z,27.78
2019-06-01T07:36:49.717Z,27.74
2019-06-01T07:37:49.716Z,27.75
2019-06-01T07:38:49.683Z,27.74
2019-06-01T07:39:49.678Z,27.89
2019-06-01T07:40:49.674Z,27.82
2019-06-01T07:41:49.798Z,27.86
2019-06-01T07:42:49.647Z,28.11
2019-06-01T07:43:49.651Z,28.26
2019-06-01T07:44:49.637Z,28.54
2019-06-01T07:45:49.608Z,28.74
2019-06-01T07:46:49.599Z,28.76
2019-06-01T07:47:49.604Z,28.74
2019-06-01T07:48:49.598Z,28.98
2019-06-01T07:49:49.584Z,28.96
2019-06-01T07:50:49.565Z,29.34
2019-06-01T07:51:49.594Z,29.36
2019-06-01T07:52:49.563Z,29.17
2019-06-01T07:53:49.537Z,28.97
2019-06-01T07:54:49.523Z,28.70
2019-06-01T07:55:49.515Z,28.86
2019-06-01T07:56:49.510Z,29.29
2019-06-01T07:57:49.508Z,29.04
2019-06-01T07:58:49.474Z,29.17
2019-06-01T07:59:49.478Z,28.62
2019-06-01T08:00:49.470Z,28.57
2019-06-01T08:01:49.550Z,28.84
2019-06-01T08:02:49.476Z,28.88
2019-06-01T08:03:49.455Z,29.23
2019-06-01T08:04:54.084Z,29.07
2019-06-01T08:05:50.472Z,28.93
2019-06-01T08:06:49.452Z,29.16
2019-06-01T08:07:49.406Z,29.12
2019-06-01T08:08:49.399Z,28.94
2019-06-01T08:09:49.382Z,29.36
2019-06-01T08:10:49.359Z,29.24
2019-06-01T08:11:49.369Z,29.27
2019-06-01T08:12:49.335Z,29.17
2019-06-01T08:13:50.049Z,29.26
2019-06-01T08:14:49.321Z,29.34
2019-06-01T08:15:49.309Z,29.81
2019-06-01T08:16:49.312Z,30.15
2019-06-01T08:17:49.285Z,30.00
2019-06-01T08:18:52.973Z,29.78
2019-06-01T08:19:51.868Z,29.53
2019-06-01T08:20:49.289Z,29.53
2019-06-01T08:21:49.277Z,29.71
2019-06-01T08:22:49.323Z,29.78
2019-06-01T08:23:49.218Z,29.71
2019-06-01T08:24:49.230Z,29.84
2019-06-01T08:25:49.196Z,29.59
2019-06-01T08:26:49.208Z,29.42
2019-06-01T08:27:49.194Z,29.38
2019-06-01T08:28:49.181Z,29.36
2019-06-01T08:29:49.200Z,29.35
2019-06-01T08:30:49.174Z,29.65
2019-06-01T08:31:49.143Z,29.75
2019-06-01T08:32:49.131Z,29.57
2019-06-01T08:33:49.121Z,29.31
2019-06-01T08:34:49.139Z,28.97
2019-06-01T08:35:49.152Z,29.04
2019-06-01T08:36:49.091Z,29.17
2019-06-01T08:37:49.122Z,29.32
2019-06-01T08:38:49.077Z,29.38
2019-06-01T08:39:49.137Z,29.44
2019-06-01T08:40:49.056Z,29.61
2019-06-01T08:41:49.129Z,29.71
2019-06-01T08:42:49.029Z,29.63
2019-06-01T08:43:49.023Z,29.93
2019-06-01T08:44:49.012Z,30.06
2019-06-01T08:45:49.016Z,30.62
2019-06-01T08:46:49.011Z,30.81
2019-06-01T08:47:49.012Z,29.49
2019-06-01T08:48:48.971Z,29.65
2019-06-01T08:49:48.978Z,30.05
2019-06-01T08:50:48.981Z,29.93
2019-06-01T08:51:48.966Z,29.94
2019-06-01T08:52:48.956Z,30.08
2019-06-01T08:53:48.942Z,29.93
2019-06-01T08:54:48.923Z,29.79
2019-06-01T08:55:48.932Z,29.69
2019-06-01T08:56:48.901Z,29.60
2019-06-01T08:57:48.900Z,29.45
2019-06-01T08:58:48.870Z,29.65
2019-06-01T08:59:48.894Z,29.81
2019-06-01T09:00:48.859Z,29.90
2019-06-01T09:01:48.873Z,30.13
2019-06-01T09:02:48.911Z,30.59
2019-06-01T09:03:48.829Z,30.84
2019-06-01T09:04:48.810Z,31.05
2019-06-01T09:05:48.808Z,30.75
2019-06-01T09:06:48.837Z,29.93
2019-06-01T09:07:48.797Z,29.93
2019-06-01T09:08:48.788Z,30.10
2019-06-01T09:09:48.758Z,30.40
2019-06-01T09:10:48.762Z,30.65
2019-06-01T09:11:48.764Z,30.88
2019-06-01T09:12:48.770Z,30.94
2019-06-01T09:13:52.139Z,31.31
2019-06-01T09:14:48.724Z,31.42
2019-06-01T09:15:48.710Z,31.12
2019-06-01T09:16:48.690Z,30.81
2019-06-01T09:17:48.700Z,30.73
2019-06-01T09:18:48.691Z,30.99
2019-06-01T09:19:48.660Z,30.78
2019-06-01T09:20:48.668Z,30.87
2019-06-01T09:21:48.644Z,30.91
2019-06-01T09:22:48.672Z,31.20
2019-06-01T09:23:48.641Z,31.09
2019-06-01T09:24:53.007Z,31.37
2019-06-01T09:25:48.607Z,31.33
2019-06-01T09:26:48.601Z,31.34
2019-06-01T09:27:48.582Z,31.25
2019-06-01T09:28:48.604Z,31.42
2019-06-01T09:29:48.574Z,31.34
2019-06-01T09:30:48.556Z,31.46
2019-06-01T09:31:48.551Z,31.64
2019-06-01T09:32:48.532Z,31.61
2019-06-01T09:33:48.634Z,31.78
2019-06-01T09:34:48.528Z,31.92
2019-06-01T09:35:56.072Z,32.40
2019-06-01T09:36:49.494Z,32.34
2019-06-01T09:37:48.538Z,32.38
2019-06-01T09:38:48.547Z,32.27
2019-06-01T09:39:48.478Z,31.52
2019-06-01T09:40:48.487Z,31.31
2019-06-01T09:41:48.453Z,31.18
2019-06-01T09:42:48.455Z,31.10
2019-06-01T09:43:48.436Z,31.05
2019-06-01T09:44:48.432Z,31.43
2019-06-01T09:45:52.817Z,31.24
2019-06-01T09:46:49.386Z,31.06
2019-06-01T09:47:48.393Z,31.03
2019-06-01T09:48:48.485Z,31.07
2019-06-01T09:49:48.448Z,30.70
2019-06-01T09:50:48.343Z,30.63
2019-06-01T09:51:48.344Z,30.88
2019-06-01T09:52:48.339Z,31.05
2019-06-01T09:53:48.364Z,31.25
2019-06-01T09:54:48.342Z,31.42
2019-06-01T09:55:48.338Z,31.42
2019-06-01T09:56:48.306Z,31.52
2019-06-01T09:57:48.302Z,31.47
2019-06-01T09:58:48.293Z,31.51
2019-06-01T09:59:48.297Z,31.87
2019-06-01T10:00:48.305Z,31.96
2019-06-01T10:01:48.327Z,31.36
2019-06-01T10:02:48.266Z,31.55
2019-06-01T10:03:48.285Z,31.36
2019-06-01T10:04:48.221Z,31.31
2019-06-01T10:06:01.376Z,31.33
2019-06-01T10:06:49.235Z,30.96
2019-06-01T10:07:48.222Z,30.68
2019-06-01T10:08:48.187Z,30.40
2019-06-01T10:09:48.185Z,29.97
2019-06-01T10:10:48.166Z,29.63
2019-06-01T10:11:48.167Z,29.23
2019-06-01T10:12:48.147Z,28.91
2019-06-01T10:13:48.161Z,28.76
2019-06-01T10:14:48.114Z,29.31
2019-06-01T10:15:48.114Z,29.61
2019-06-01T10:16:48.144Z,29.82
2019-06-01T10:17:48.097Z,30.10
2019-06-01T10:18:48.087Z,30.24
2019-06-01T10:19:48.061Z,30.30
2019-06-01T10:20:48.074Z,30.34
2019-06-01T10:21:48.071Z,30.37
2019-06-01T10:22:48.077Z,30.34
2019-06-01T10:23:49.697Z,30.43
2019-06-01T10:24:48.033Z,30.53
2019-06-01T10:25:48.053Z,30.54
2019-06-01T10:26:48.046Z,30.72
2019-06-01T10:27:48.025Z,31.02
2019-06-01T10:28:48.008Z,31.36
2019-06-01T10:29:47.994Z,31.49
2019-06-01T10:30:47.967Z,31.73
2019-06-01T10:31:47.955Z,31.51
2019-06-01T10:32:47.986Z,31.77
2019-06-01T10:33:51.261Z,31.77
2019-06-01T10:34:47.918Z,31.64
2019-06-01T10:35:47.936Z,31.33
2019-06-01T10:36:47.919Z,31.76
2019-06-01T10:37:48.012Z,32.22
2019-06-01T10:38:48.233Z,32.64
2019-06-01T10:39:47.869Z,32.41
2019-06-01T10:40:47.881Z,32.23
2019-06-01T10:41:47.866Z,32.00
2019-06-01T10:42:47.867Z,32.15
2019-06-01T10:43:47.878Z,32.30
2019-06-01T10:44:47.827Z,32.15
2019-06-01T10:45:47.813Z,32.04
2019-06-01T10:46:47.803Z,32.18
2019-06-01T10:47:47.804Z,31.93
2019-06-01T10:48:47.800Z,32.26
2019-06-01T10:49:47.878Z,32.19
2019-06-01T10:50:47.773Z,32.19
2019-06-01T10:51:47.797Z,32.63
2019-06-01T10:52:47.759Z,32.68
2019-06-01T10:53:47.820Z,32.49
2019-06-01T10:54:47.722Z,32.65
2019-06-01T10:55:47.728Z,32.70
2019-06-01T10:56:47.708Z,32.22
2019-06-01T10:57:47.721Z,32.21
2019-06-01T10:58:59.287Z,32.27
2019-06-01T10:59:48.719Z,32.29
2019-06-01T11:00:51.139Z,32.58
2019-06-01T11:01:47.680Z,32.75
2019-06-01T11:02:47.711Z,33.01
2019-06-01T11:03:47.669Z,33.02
2019-06-01T11:04:47.687Z,33.04
2019-06-01T11:05:47.642Z,33.30
2019-06-01T11:06:48.839Z,33.23
2019-06-01T11:07:47.609Z,32.89
2019-06-01T11:08:47.621Z,32.40
2019-06-01T11:09:47.589Z,32.40
2019-06-01T11:10:47.625Z,32.34
2019-06-01T11:11:47.585Z,32.18
2019-06-01T11:12:47.554Z,32.36
2019-06-01T11:13:47.581Z,32.67
2019-06-01T11:14:47.536Z,32.90
2019-06-01T11:15:47.594Z,33.00
2019-06-01T11:16:52.709Z,32.97
2019-06-01T11:17:48.510Z,33.07
2019-06-01T11:18:47.936Z,33.00
2019-06-01T11:19:47.491Z,32.92
2019-06-01T11:20:47.504Z,32.95
2019-06-01T11:21:47.460Z,32.64
2019-06-01T11:22:47.463Z,32.65
2019-06-01T11:23:47.524Z,32.82
2019-06-01T11:24:47.460Z,32.86
2019-06-01T11:25:47.433Z,32.87
2019-06-01T11:26:47.462Z,32.92
2019-06-01T11:27:47.423Z,33.15
2019-06-01T11:28:47.415Z,33.28
2019-06-01T11:29:52.139Z,33.20
2019-06-01T11:30:47.412Z,33.20
2019-06-01T11:31:48.871Z,33.32
2019-06-01T11:32:47.403Z,33.52
2019-06-01T11:33:47.356Z,33.59
2019-06-01T11:34:47.349Z,33.40
2019-06-01T11:35:47.385Z,33.28
2019-06-01T11:37:04.616Z,33.61
2019-06-01T11:37:48.340Z,33.40
2019-06-01T11:38:47.307Z,33.52
2019-06-01T11:39:47.303Z,33.55
2019-06-01T11:40:47.313Z,33.83
2019-06-01T11:41:47.312Z,33.94
2019-06-01T11:42:47.296Z,33.80
2019-06-01T11:43:47.270Z,33.67
2019-06-01T11:44:47.262Z,33.58
2019-06-01T11:45:47.244Z,33.42
2019-06-01T11:46:47.243Z,33.45
2019-06-01T11:47:47.244Z,33.01
2019-06-01T11:48:47.242Z,32.93
2019-06-01T11:49:47.216Z,32.75
2019-06-01T11:50:47.204Z,32.78
2019-06-01T11:51:47.244Z,33.01
2019-06-01T11:52:47.182Z,33.27
2019-06-01T11:53:47.209Z,33.40
2019-06-01T11:54:47.158Z,33.39
2019-06-01T11:55:47.164Z,33.12
2019-06-01T11:56:47.152Z,32.90
2019-06-01T11:57:47.135Z,32.71
2019-06-01T11:58:47.133Z,32.85
2019-06-01T11:59:47.195Z,32.97
2019-06-01T12:00:47.114Z,33.30
2019-06-01T12:01:47.100Z,33.12
2019-06-01T12:02:47.081Z,33.15
2019-06-01T12:03:47.079Z,33.01
2019-06-01T12:04:47.051Z,32.97
2019-06-01T12:05:47.092Z,32.78
2019-06-01T12:06:47.036Z,32.19
2019-06-01T12:07:47.053Z,32.19
2019-06-01T12:08:47.022Z,32.33
2019-06-01T12:09:47.020Z,32.58
2019-06-01T12:10:47.751Z,32.93
2019-06-01T12:11:46.996Z,32.96
2019-06-01T12:12:46.996Z,33.19
2019-06-01T12:13:47.011Z,33.12
2019-06-01T12:14:47.034Z,33.19
2019-06-01T12:15:47.001Z,33.32
2019-06-01T12:16:46.951Z,33.20
2019-06-01T12:17:47.384Z,32.51
2019-06-01T12:18:47.021Z,32.46
2019-06-01T12:19:47.081Z,32.43
2019-06-01T12:20:47.351Z,32.48
2019-06-01T12:21:47.423Z,32.49
2019-06-01T12:22:47.248Z,32.58
2019-06-01T12:23:47.593Z,32.45
2019-06-01T12:24:47.394Z,32.48
2019-06-01T12:25:46.867Z,32.68
2019-06-01T12:26:47.627Z,32.89
2019-06-01T12:27:46.838Z,32.95
2019-06-01T12:28:47.957Z,32.96
2019-06-01T12:29:48.282Z,32.95
2019-06-01T12:30:47.912Z,33.20
2019-06-01T12:31:48.059Z,33.57
2019-06-01T12:32:48.716Z,33.69
2019-06-01T12:33:46.776Z,33.96
2019-06-01T12:34:48.154Z,33.94
2019-06-01T12:35:46.763Z,34.21
2019-06-01T12:36:46.762Z,33.99
2019-06-01T12:38:04.388Z,33.84
2019-06-01T12:38:48.419Z,33.58
2019-06-01T12:39:51.218Z,33.20
2019-06-01T12:40:47.729Z,33.07
2019-06-01T12:41:47.796Z,33.14
2019-06-01T12:42:47.755Z,33.09
2019-06-01T12:43:47.760Z,33.32
2019-06-01T12:44:47.832Z,33.34
2019-06-01T12:45:47.798Z,33.47
2019-06-01T12:46:47.041Z,33.62
2019-06-01T12:47:49.559Z,33.46
2019-06-01T12:48:48.436Z,33.43
2019-06-01T12:49:46.638Z,33.58
2019-06-01T12:50:49.305Z,33.84
2019-06-01T12:51:47.028Z,33.98